Time;durP1;ratioP1;P1;durP2;ratioP2;P2;SDS_P1;SDS_P2;PMS_P1;PMS_P2;Temp;Humidity;BMP_temperature;BMP_pressure;BME280_temperature;BME280_humidity;BME280_pressure;Samples;Min_cycle;Max_cycle;Signal;HPM_P1;HPM_P2
2021/12/24 00:01:41;;;;;;;4.03;2.13;;;;;;;6.74;70.65;95632.63;5070510;28;20535;-74
2021/12/24 00:04:10;;;;;;;4.45;1.92;;;;;;;6.70;70.88;95631.66;5070230;28;20045;-74
2021/12/24 00:06:36;;;;;;;4.10;1.58;;;;;;;6.67;71.28;95637.66;5070387;28;20044;-74
2021/12/24 00:09:03;;;;;;;6.43;2.10;;;;;;;6.62;71.58;95630.47;5069959;28;20486;-75
2021/12/24 00:11:31;;;;;;;4.03;1.90;;;;;;;6.63;71.68;95631.28;5068692;28;20051;-74
2021/12/24 00:13:59;;;;;;;3.80;2.00;;;;;;;6.62;71.75;95640.50;5069586;28;20047;-75
2021/12/24 00:16:32;;;;;;;3.90;2.17;;;;;;;6.62;71.61;95625.06;5069974;28;20045;-74
2021/12/24 00:19:11;;;;;;;5.72;1.98;;;;;;;6.61;71.70;95619.97;5070631;28;20494;-74
2021/12/24 00:35:22;;;;;;;5.03;2.20;;;;;;;6.36;73.14;95595.19;5073015;28;20184;-74
2021/12/24 00:37:50;;;;;;;3.25;1.90;;;;;;;6.34;73.46;95594.69;5073782;28;20040;-74
2021/12/24 00:40:19;;;;;;;4.22;1.85;;;;;;;6.30;73.48;95593.72;5073067;28;20517;-75
2021/12/24 00:42:48;;;;;;;4.47;1.98;;;;;;;6.25;73.51;95591.94;5070970;28;20126;-74
2021/12/24 00:45:16;;;;;;;5.53;2.58;;;;;;;6.20;73.81;95597.47;5073075;28;20051;-74
2021/12/24 00:47:43;;;;;;;5.30;2.30;;;;;;;6.20;73.89;95593.97;5073408;28;20055;-74
2021/12/24 00:50:15;;;;;;;5.95;1.88;;;;;;;6.19;73.81;95590.47;5073048;28;20044;-74
2021/12/24 00:52:48;;;;;;;3.58;2.20;;;;;;;6.15;74.05;95591.38;5073336;28;20391;-74
2021/12/24 00:55:17;;;;;;;3.85;2.00;;;;;;;6.09;74.18;95589.91;5073140;28;20478;-74
2021/12/24 00:57:45;;;;;;;4.68;2.08;;;;;;;6.06;74.21;95577.03;5073266;28;20048;-74
2021/12/24 01:00:16;;;;;;;2.92;1.80;;;;;;;6.04;74.26;95571.13;5072929;28;20103;-74
2021/12/24 01:02:43;;;;;;;4.97;1.98;;;;;;;6.04;74.55;95577.31;5073059;28;20501;-74
2021/12/24 01:05:11;;;;;;;3.35;1.88;;;;;;;6.08;74.50;95577.53;5072803;28;20043;-74
2021/12/24 01:07:38;;;;;;;4.30;1.90;;;;;;;6.09;74.43;95579.91;5073168;28;20041;-74
2021/12/24 01:10:07;;;;;;;3.92;1.63;;;;;;;6.10;74.28;95569.88;5072625;28;20418;-74
2021/12/24 01:12:35;;;;;;;3.08;1.63;;;;;;;6.11;74.55;95561.50;5070395;28;20662;-74
2021/12/24 01:15:02;;;;;;;2.55;1.52;;;;;;;6.15;74.73;95559.75;5072495;28;20426;-73
2021/12/24 01:17:38;;;;;;;2.97;1.67;;;;;;;6.27;74.25;95561.91;5073138;28;20127;-74
2021/12/24 01:20:13;;;;;;;5.57;1.95;;;;;;;6.38;73.71;95559.72;5072462;28;20052;-74
2021/12/24 01:23:21;;;;;;;4.63;1.73;;;;;;;6.45;73.66;95560.06;5072591;28;20047;-74
2021/12/24 01:25:45;;;;;;;4.00;2.15;;;;;;;6.55;73.67;95554.41;5072351;28;20468;-74
2021/12/24 01:39:21;;;;;;;5.18;1.55;;;;;;;6.76;73.24;95555.44;5072111;28;20052;-74
2021/12/24 01:44:34;;;;;;;3.53;1.60;;;;;;;6.85;73.31;95558.19;5072379;28;20605;-74
2021/12/24 01:47:04;;;;;;;2.63;1.50;;;;;;;6.89;72.82;95559.16;5072551;28;20044;-74
2021/12/24 01:49:30;;;;;;;5.30;1.80;;;;;;;6.94;72.73;95556.31;5072015;28;20051;-75
2021/12/24 01:51:58;;;;;;;6.15;2.05;;;;;;;6.98;73.00;95553.75;5072211;28;20047;-74
2021/12/24 01:54:24;;;;;;;2.90;1.40;;;;;;;6.98;72.84;95551.84;5071730;28;20049;-74
2021/12/24 01:56:51;;;;;;;5.70;1.88;;;;;;;7.02;72.84;95544.69;5072083;28;20045;-74
2021/12/24 01:59:18;;;;;;;4.45;1.70;;;;;;;7.07;72.73;95538.34;5071758;28;20052;-74
2021/12/24 02:01:46;;;;;;;3.22;1.42;;;;;;;7.09;73.05;95538.00;5072045;28;20040;-75
2021/12/24 02:04:14;;;;;;;4.38;1.80;;;;;;;7.18;72.86;95534.22;5071521;28;20067;-74
2021/12/24 02:06:41;;;;;;;3.50;1.67;;;;;;;7.21;72.82;95527.38;5071765;28;20044;-74
2021/12/24 02:09:08;;;;;;;5.07;1.98;;;;;;;7.25;72.63;95518.28;5071302;28;20049;-74
2021/12/24 02:11:37;;;;;;;3.80;1.75;;;;;;;7.29;72.49;95513.03;5069428;28;20499;-74
2021/12/24 02:14:05;;;;;;;4.00;1.70;;;;;;;7.32;72.27;95517.84;5071433;28;20451;-74
2021/12/24 02:16:44;;;;;;;4.10;1.88;;;;;;;7.35;72.38;95511.78;5071889;28;20048;-74
2021/12/24 02:30:31;;;;;;;2.45;1.50;;;;;;;7.58;72.15;95494.25;5071199;28;20445;-74
2021/12/24 02:32:58;;;;;;;2.83;1.63;;;;;;;7.63;71.91;95495.22;5071508;28;20041;-75
2021/12/24 02:35:25;;;;;;;6.35;1.80;;;;;;;7.66;72.00;95489.16;5070768;28;20617;-74
2021/12/24 02:37:53;;;;;;;3.95;1.77;;;;;;;7.67;72.08;95496.16;5071273;28;20044;-74
2021/12/24 02:40:19;;;;;;;1.95;1.42;;;;;;;7.70;72.12;95484.69;5070722;28;20422;-74
2021/12/24 02:42:51;;;;;;;2.95;1.52;;;;;;;7.74;71.71;95475.59;5068007;28;20414;-74
2021/12/24 02:45:18;;;;;;;3.42;1.50;;;;;;;7.79;71.68;95483.56;5070954;28;20131;-75
2021/12/24 02:48:06;;;;;;;3.58;1.70;;;;;;;7.85;71.44;95473.34;5071191;28;20051;-75
2021/12/24 02:56:04;;;;;;;2.92;1.20;;;;;;;8.00;71.12;95451.16;5070751;28;20052;-74
2021/12/24 02:58:38;;;;;;;2.35;1.30;;;;;;;8.04;70.77;95445.88;5070949;28;20048;-75
2021/12/24 03:01:05;;;;;;;3.60;1.63;;;;;;;8.08;70.62;95453.03;5070775;28;20048;-74
2021/12/24 03:03:31;;;;;;;5.53;1.58;;;;;;;8.10;70.98;95439.97;5070550;28;20055;-75
2021/12/24 03:05:58;;;;;;;4.93;1.45;;;;;;;8.15;70.46;95441.69;5070978;28;20513;-74
2021/12/24 03:08:26;;;;;;;2.63;1.30;;;;;;;8.21;70.37;95428.75;5070408;28;20056;-73
2021/12/24 03:10:54;;;;;;;2.38;1.40;;;;;;;8.24;70.21;95425.38;5070900;28;20047;-74
2021/12/24 03:13:20;;;;;;;3.60;1.42;;;;;;;8.23;70.18;95432.72;5067781;28;20048;-74
2021/12/24 03:15:50;;;;;;;3.35;1.50;;;;;;;8.23;70.31;95421.88;5070852;28;20049;-74
2021/12/24 03:18:23;;;;;;;5.88;1.75;;;;;;;8.25;69.86;95418.84;5070350;28;20056;-74
2021/12/24 03:20:56;;;;;;;4.28;1.80;;;;;;;8.26;70.16;95415.81;5071064;28;20044;-75
2021/12/24 03:23:34;;;;;;;3.88;1.50;;;;;;;8.32;69.86;95413.72;5070280;28;20405;-74
2021/12/24 03:26:04;;;;;;;2.45;1.20;;;;;;;8.30;69.96;95415.94;5070854;28;20064;-74
2021/12/24 03:28:30;;;;;;;3.10;1.33;;;;;;;8.30;69.96;95402.38;5070439;28;20040;-74
2021/12/24 03:30:57;;;;;;;3.63;1.40;;;;;;;8.29;69.62;95403.50;5070765;28;20081;-75
2021/12/24 03:33:24;;;;;;;7.60;1.50;;;;;;;8.29;69.62;95408.94;5069764;28;20682;-74
2021/12/24 03:35:50;;;;;;;3.15;1.85;;;;;;;8.29;69.77;95400.78;5070644;28;20611;-75
2021/12/24 03:38:17;;;;;;;1.65;1.10;;;;;;;8.29;69.70;95398.88;5070013;28;20063;-75
2021/12/24 03:40:44;;;;;;;2.95;1.38;;;;;;;8.28;69.59;95400.00;5067895;28;20045;-74
2021/12/24 03:43:11;;;;;;;3.45;1.42;;;;;;;8.29;69.79;95388.03;5070055;28;20052;-74
2021/12/24 03:45:45;;;;;;;3.58;1.35;;;;;;;8.30;69.43;95384.22;5070908;28;20052;-72
2021/12/24 03:48:18;;;;;;;;;;;;;;;8.33;69.51;95394.38;5070762;28;20045;-72
2021/12/24 03:50:52;;;;;;;4.07;1.50;;;;;;;8.35;69.22;95394.88;5070674;28;19963;-72
2021/12/24 03:56:04;;;;;;;3.00;1.77;;;;;;;8.34;69.59;95387.03;5074103;28;20052;-74
2021/12/24 03:58:32;;;;;;;3.00;1.45;;;;;;;8.37;69.06;95389.16;5074549;28;20048;-72
2021/12/24 04:00:58;;;;;;;2.75;1.25;;;;;;;8.40;68.72;95383.03;5074310;28;20402;-73
2021/12/24 04:03:25;;;;;;;2.60;1.35;;;;;;;8.44;68.32;95378.56;5073700;28;20047;-73
2021/12/24 04:05:51;;;;;;;1.75;1.10;;;;;;;8.44;68.30;95381.28;5074314;28;20040;-73
2021/12/24 04:08:19;;;;;;;4.55;1.20;;;;;;;8.49;67.71;95385.72;5073687;28;20048;-73
2021/12/24 04:10:45;;;;;;;2.70;1.25;;;;;;;8.49;67.57;95389.22;5071852;28;20066;-74
2021/12/24 04:13:15;;;;;;;2.85;1.10;;;;;;;8.47;67.76;95388.78;5073759;28;20059;-73
2021/12/24 04:15:43;;;;;;;3.15;1.23;;;;;;;8.48;67.28;95390.34;5074002;28;20075;-74
2021/12/24 04:18:15;;;;;;;1.70;1.00;;;;;;;8.48;67.04;95384.94;5073491;28;20044;-73
2021/12/24 04:26:10;;;;;;;2.53;1.10;;;;;;;8.54;66.27;95382.81;5073629;28;20075;-73
2021/12/24 04:28:37;;;;;;;2.60;1.10;;;;;;;8.59;66.40;95383.44;5073872;28;20051;-73
2021/12/24 04:31:04;;;;;;;4.32;1.38;;;;;;;8.59;66.13;95385.34;5073433;28;20516;-72
2021/12/24 04:33:35;;;;;;;3.25;1.00;;;;;;;8.59;65.70;95374.50;5073380;28;20410;-73
2021/12/24 04:36:15;;;;;;;2.50;1.02;;;;;;;8.58;65.71;95378.34;5073748;28;20052;-73
2021/12/24 04:52:47;;;;;;;2.15;1.20;;;;;;;8.55;64.59;95384.41;5073011;28;20048;-72
2021/12/24 05:03:32;;;;;;;3.40;1.10;;;;;;;8.55;63.55;95377.06;5072838;28;20043;-73
2021/12/24 05:06:14;;;;;;;1.52;1.00;;;;;;;8.53;63.45;95376.59;5072357;28;20127;-72
2021/12/24 05:08:48;;;;;;;3.35;1.13;;;;;;;8.44;62.95;95367.72;5073041;28;20036;-75
2021/12/24 05:11:15;;;;;;;6.07;1.30;;;;;;;8.40;63.18;95377.63;5070377;28;20498;-72
2021/12/24 05:13:42;;;;;;;2.13;1.02;;;;;;;8.38;63.26;95379.09;5073037;28;20044;-73
2021/12/24 05:16:19;;;;;;;4.63;1.02;;;;;;;8.38;62.85;95379.88;5072346;28;20052;-72
2021/12/24 05:21:36;;;;;;;3.92;1.10;;;;;;;8.28;62.90;95381.00;5068166;28;20044;-73
2021/12/24 05:24:04;;;;;;;2.13;1.10;;;;;;;8.28;63.04;95385.63;5072361;28;20554;-73
2021/12/24 05:26:32;;;;;;;1.55;1.00;;;;;;;8.24;62.80;95381.97;5072551;28;20426;-73
2021/12/24 05:28:58;;;;;;;2.95;1.00;;;;;;;8.21;63.10;95393.50;5072832;28;20040;-73
2021/12/24 05:31:25;;;;;;;4.40;1.10;;;;;;;8.18;63.08;95397.66;5072258;28;20045;-73
2021/12/24 05:33:53;;;;;;;1.63;1.10;;;;;;;8.09;63.66;95395.00;5072330;28;20055;-74
2021/12/24 05:36:20;;;;;;;2.00;0.90;;;;;;;8.02;63.89;95394.69;5072145;28;20505;-73
2021/12/24 05:38:46;;;;;;;2.45;1.35;;;;;;;7.97;64.26;95391.34;5072542;28;20044;-73
2021/12/24 05:41:13;;;;;;;3.25;1.02;;;;;;;7.93;64.08;95393.13;5069637;28;20457;-73
2021/12/24 05:43:40;;;;;;;4.75;1.00;;;;;;;7.91;63.87;95389.94;5072377;28;20431;-73
2021/12/24 05:46:06;;;;;;;1.83;1.10;;;;;;;7.91;64.16;95388.03;5071901;28;20490;-73
2021/12/24 05:48:33;;;;;;;1.50;0.88;;;;;;;7.89;64.16;95392.19;5072345;28;20061;-73
2021/12/24 05:51:01;;;;;;;3.80;1.33;;;;;;;7.86;64.11;95390.91;5072200;28;20045;-73
2021/12/24 05:53:27;;;;;;;2.90;1.10;;;;;;;7.83;64.14;95386.94;5071964;28;20040;-73
2021/12/24 05:55:54;;;;;;;2.25;1.33;;;;;;;7.77;64.71;95388.22;5072282;28;20048;-73
2021/12/24 05:58:20;;;;;;;2.75;1.17;;;;;;;7.65;66.15;95401.66;5071738;28;20045;-73
2021/12/24 06:00:48;;;;;;;2.78;1.20;;;;;;;7.41;68.75;95402.16;5072027;28;20402;-73
2021/12/24 06:03:15;;;;;;;3.28;1.10;;;;;;;7.13;70.77;95396.28;5071404;28;20052;-73
2021/12/24 06:05:42;;;;;;;2.50;1.30;;;;;;;6.89;72.04;95402.19;5071991;28;20055;-73
2021/12/24 06:08:10;;;;;;;2.60;1.35;;;;;;;6.72;72.35;95405.66;5071228;28;20049;-72
2021/12/24 06:10:37;;;;;;;5.85;1.23;;;;;;;6.58;72.64;95410.44;5069787;28;20048;-72
2021/12/24 06:13:05;;;;;;;2.17;1.20;;;;;;;6.50;73.00;95405.78;5071382;28;20051;-72
2021/12/24 06:15:41;;;;;;;2.15;1.20;;;;;;;6.42;73.62;95403.84;5071731;28;20063;-73
2021/12/24 06:18:12;;;;;;;4.43;1.67;;;;;;;6.32;74.28;95399.53;5071404;28;20048;-72
2021/12/24 06:20:40;;;;;;;2.90;1.27;;;;;;;6.23;74.94;95401.41;5071695;28;20052;-73
2021/12/24 06:23:08;;;;;;;2.55;1.05;;;;;;;6.19;74.93;95395.03;5070955;28;20522;-72
2021/12/24 06:25:36;;;;;;;5.72;1.40;;;;;;;6.18;75.12;95412.38;5071665;28;20576;-73
2021/12/24 06:28:03;;;;;;;3.05;1.15;;;;;;;6.13;75.07;95407.09;5071217;28;20051;-72
2021/12/24 06:30:30;;;;;;;3.70;1.42;;;;;;;6.11;74.86;95402.03;5071346;28;20043;-72
2021/12/24 06:32:58;;;;;;;2.83;1.48;;;;;;;6.15;74.79;95399.47;5071057;28;20429;-72
2021/12/24 06:35:25;;;;;;;3.05;1.27;;;;;;;6.19;74.78;95406.66;5070996;28;20044;-73
2021/12/24 06:37:51;;;;;;;2.80;1.20;;;;;;;6.18;74.73;95399.66;5071497;28;20067;-73
2021/12/24 06:40:18;;;;;;;3.00;1.20;;;;;;;6.19;74.54;95406.66;5068550;28;20059;-73
2021/12/24 06:42:46;;;;;;;3.00;1.60;;;;;;;6.18;75.27;95398.84;5071378;28;20040;-73
2021/12/24 06:45:12;;;;;;;3.53;1.52;;;;;;;6.15;75.76;95415.69;5070741;28;20044;-73
2021/12/24 06:47:39;;;;;;;3.35;1.50;;;;;;;6.13;76.41;95412.50;5071080;28;20406;-73
2021/12/24 06:50:07;;;;;;;4.60;1.48;;;;;;;6.08;76.12;95408.03;5070652;28;20044;-73
2021/12/24 06:52:33;;;;;;;1.73;1.30;;;;;;;6.07;76.18;95416.47;5071233;28;20044;-72
2021/12/24 06:55:00;;;;;;;3.42;1.55;;;;;;;5.98;76.39;95413.72;5071250;28;20616;-73
2021/12/24 06:57:26;;;;;;;6.43;1.80;;;;;;;6.00;76.11;95423.13;5070548;28;20048;-73
2021/12/24 06:59:54;;;;;;;3.80;2.13;;;;;;;5.97;75.96;95418.31;5071032;28;20041;-73
2021/12/24 07:02:20;;;;;;;6.70;1.60;;;;;;;5.93;76.52;95422.75;5070449;28;20040;-73
2021/12/24 07:04:47;;;;;;;2.80;1.55;;;;;;;5.94;76.48;95420.84;5070955;28;20040;-73
2021/12/24 07:07:13;;;;;;;3.00;1.52;;;;;;;5.94;76.63;95420.84;5070431;28;20418;-72
2021/12/24 07:09:42;;;;;;;3.03;1.35;;;;;;;5.97;76.24;95426.44;5070076;28;20048;-73
2021/12/24 07:12:11;;;;;;;5.82;1.40;;;;;;;6.00;75.88;95420.41;5069695;28;20056;-73
2021/12/24 07:14:38;;;;;;;2.92;1.58;;;;;;;6.08;75.24;95426.16;5070742;28;20082;-73
2021/12/24 07:17:06;;;;;;;2.67;1.40;;;;;;;6.11;75.20;95425.53;5070383;28;20044;-73
2021/12/24 07:19:33;;;;;;;4.63;1.80;;;;;;;6.19;74.57;95438.28;5070935;28;20047;-73
2021/12/24 07:22:00;;;;;;;3.17;1.63;;;;;;;6.27;73.98;95440.25;5070828;28;20048;-73
2021/12/24 07:24:26;;;;;;;5.97;1.70;;;;;;;6.34;74.42;95440.56;5070453;28;20040;-73
2021/12/24 07:26:53;;;;;;;3.03;1.48;;;;;;;6.40;74.13;95438.53;5070899;28;20055;-73
2021/12/24 07:29:20;;;;;;;3.75;1.38;;;;;;;6.43;73.92;95438.69;5069667;28;20040;-73
2021/12/24 07:31:46;;;;;;;4.43;1.40;;;;;;;6.49;73.48;95437.44;5070760;28;20486;-73
2021/12/24 07:34:14;;;;;;;2.50;1.40;;;;;;;6.55;72.78;95429.97;5069923;28;20045;-73
2021/12/24 07:36:40;;;;;;;1.75;1.10;;;;;;;6.58;72.97;95434.78;5070734;28;20041;-73
2021/12/24 07:39:07;;;;;;;4.28;1.30;;;;;;;6.58;72.95;95431.25;5070389;28;20048;-74
2021/12/24 07:41:33;;;;;;;3.15;1.60;;;;;;;6.61;72.15;95419.81;5068434;28;20040;-72
2021/12/24 07:44:01;;;;;;;2.53;1.30;;;;;;;6.65;72.47;95423.47;5070434;28;20041;-73
2021/12/24 07:46:35;;;;;;;3.50;1.60;;;;;;;6.65;72.10;95429.69;5070422;28;20051;-74
2021/12/24 07:49:12;;;;;;;1.77;1.33;;;;;;;6.72;71.67;95423.81;5070502;28;20041;-75
2021/12/24 07:52:03;;;;;;;3.10;1.60;;;;;;;6.71;71.79;95428.41;5070574;28;20605;-73
2021/12/24 07:54:31;;;;;;;4.28;1.30;;;;;;;6.72;72.42;95431.91;5070291;28;20470;-72
2021/12/24 07:56:59;;;;;;;4.13;1.40;;;;;;;6.65;73.49;95428.88;5070413;28;20036;-73
2021/12/24 07:59:26;;;;;;;4.18;1.48;;;;;;;6.56;73.67;95430.78;5069845;28;20067;-73
2021/12/24 08:01:54;;;;;;;3.35;1.70;;;;;;;6.47;74.57;95439.69;5070528;28;20086;-72
2021/12/24 08:04:21;;;;;;;3.05;1.52;;;;;;;6.44;74.47;95424.06;5069983;28;20052;-75
2021/12/24 08:06:49;;;;;;;4.35;1.48;;;;;;;6.39;74.91;95415.31;5070419;28;20036;-72
2021/12/24 08:09:15;;;;;;;4.13;1.70;;;;;;;6.38;75.05;95424.53;5070123;28;20049;-72
2021/12/24 08:11:42;;;;;;;3.10;1.70;;;;;;;6.37;75.39;95418.31;5068215;28;20060;-75
2021/12/24 08:14:09;;;;;;;2.95;1.70;;;;;;;6.33;75.65;95428.16;5069829;28;20423;-72
2021/12/24 08:16:36;;;;;;;2.30;1.67;;;;;;;6.31;76.49;95424.16;5070345;28;20048;-72
2021/12/24 08:19:03;;;;;;;3.45;2.03;;;;;;;6.28;77.16;95436.41;5069816;28;20407;-74
2021/12/24 08:21:30;;;;;;;3.72;1.42;;;;;;;6.26;77.25;95427.81;5070148;28;20056;-72
2021/12/24 08:23:58;;;;;;;2.58;1.52;;;;;;;6.26;77.98;95427.81;5070058;28;20093;-73
2021/12/24 08:26:25;;;;;;;4.32;1.98;;;;;;;6.25;78.51;95431.63;5069814;28;20051;-73
2021/12/24 08:28:52;;;;;;;3.95;1.77;;;;;;;6.20;79.05;95435.25;5070314;28;20075;-73
2021/12/24 08:31:19;;;;;;;5.88;1.80;;;;;;;6.15;80.03;95430.00;5069662;28;20051;-73
2021/12/24 08:33:45;;;;;;;4.10;1.98;;;;;;;6.14;80.71;95430.31;5069789;28;20056;-73
2021/12/24 08:36:12;;;;;;;5.65;2.00;;;;;;;6.07;81.76;95438.88;5069543;28;20409;-72
2021/12/24 08:38:39;;;;;;;3.72;1.92;;;;;;;6.07;81.61;95430.78;5070102;28;20388;-72
2021/12/24 08:41:07;;;;;;;3.50;1.80;;;;;;;6.04;82.43;95436.78;5069425;28;20060;-73
2021/12/24 08:43:34;;;;;;;3.05;1.80;;;;;;;6.02;82.69;95430.91;5073636;28;20049;-73
2021/12/24 08:46:01;;;;;;;4.90;2.10;;;;;;;6.06;82.84;95444.59;5073430;28;20109;-73
2021/12/24 08:48:27;;;;;;;6.55;2.00;;;;;;;6.05;83.06;95440.28;5073352;28;20063;-73
2021/12/24 08:50:54;;;;;;;6.38;1.63;;;;;;;6.03;82.64;95429.00;5073493;28;20041;-73
2021/12/24 08:53:23;;;;;;;2.50;1.50;;;;;;;6.06;83.22;95433.78;5072924;28;20045;-73
2021/12/24 08:55:49;;;;;;;2.92;1.42;;;;;;;6.08;82.61;95432.34;5073399;28;20076;-73
2021/12/24 08:58:17;;;;;;;3.53;1.90;;;;;;;6.10;82.32;95424.72;5072617;28;20052;-73
2021/12/24 09:00:44;;;;;;;3.47;1.90;;;;;;;6.11;82.65;95426.34;5073209;28;20045;-73
2021/12/24 09:03:10;;;;;;;2.75;1.35;;;;;;;6.12;83.10;95422.53;5072794;28;20044;-73
2021/12/24 09:05:37;;;;;;;3.08;1.63;;;;;;;6.16;83.32;95414.56;5073104;28;20501;-73
2021/12/24 09:08:05;;;;;;;3.65;1.75;;;;;;;6.20;83.34;95423.66;5072891;28;20040;-73
2021/12/24 09:10:31;;;;;;;4.75;1.80;;;;;;;6.19;83.54;95416.66;5070840;28;20051;-73
2021/12/24 09:12:58;;;;;;;4.05;2.20;;;;;;;6.20;83.71;95429.06;5073015;28;20036;-72
2021/12/24 09:15:29;;;;;;;6.70;1.70;;;;;;;6.22;83.88;95432.28;5072539;28;20037;-73
2021/12/24 09:17:57;;;;;;;2.85;1.60;;;;;;;6.27;84.03;95429.44;5073033;28;20048;-73
2021/12/24 09:20:29;;;;;;;2.97;1.52;;;;;;;6.27;83.52;95426.72;5072506;28;20044;-73
2021/12/24 09:22:56;;;;;;;4.53;1.50;;;;;;;6.23;84.16;95425.75;5072935;28;20068;-73
2021/12/24 09:25:24;;;;;;;3.38;2.00;;;;;;;6.20;83.96;95413.63;5072424;28;20516;-73
2021/12/24 09:27:51;;;;;;;3.97;1.42;;;;;;;6.18;84.56;95409.66;5072737;28;20044;-73
2021/12/24 09:30:18;;;;;;;2.75;1.52;;;;;;;6.14;84.74;95404.06;5072267;28;20052;-73
2021/12/24 09:32:46;;;;;;;2.50;1.58;;;;;;;6.11;84.93;95407.44;5072708;28;20041;-74
2021/12/24 09:35:13;;;;;;;4.03;1.80;;;;;;;6.08;84.94;95416.16;5072086;28;20048;-73
2021/12/24 09:37:41;;;;;;;2.88;1.60;;;;;;;6.07;85.14;95416.47;5072488;28;20060;-73
2021/12/24 09:40:10;;;;;;;3.95;1.50;;;;;;;6.08;85.31;95416.16;5069958;28;20051;-74
2021/12/24 09:42:36;;;;;;;2.42;1.52;;;;;;;6.09;85.35;95416.94;5072661;28;20037;-73
2021/12/24 09:45:04;;;;;;;2.58;1.42;;;;;;;6.11;85.52;95420.13;5071768;28;20060;-73
2021/12/24 09:47:31;;;;;;;3.63;1.70;;;;;;;6.12;85.52;95421.72;5072379;28;20049;-74
2021/12/24 09:49:59;;;;;;;4.75;1.40;;;;;;;6.12;85.38;95408.22;5072374;28;20041;-73
2021/12/24 09:52:27;;;;;;;3.55;1.88;;;;;;;6.16;85.10;95412.69;5071365;28;20064;-73
2021/12/24 09:54:54;;;;;;;3.80;1.70;;;;;;;6.20;84.82;95418.25;5072075;28;20036;-73
2021/12/24 09:57:20;;;;;;;2.85;1.58;;;;;;;6.22;84.68;95406.03;5071600;28;20051;-73
2021/12/24 09:59:47;;;;;;;2.90;1.58;;;;;;;6.26;84.87;95400.78;5072085;28;20044;-73
2021/12/24 10:02:18;;;;;;;8.75;1.90;;;;;;;6.25;85.04;95415.41;5071679;28;20051;-73
2021/12/24 10:04:45;;;;;;;3.08;1.60;;;;;;;6.24;85.50;95403.78;5071984;28;20415;-73
2021/12/24 10:07:16;;;;;;;3.90;1.55;;;;;;;6.26;85.24;95400.78;5071566;28;20620;-73
2021/12/24 10:09:45;;;;;;;3.17;1.60;;;;;;;6.30;86.04;95395.53;5070503;28;20561;-73
2021/12/24 10:12:14;;;;;;;4.07;1.83;;;;;;;6.30;85.41;95398.25;5071121;28;20048;-75
2021/12/24 10:14:47;;;;;;;4.82;1.30;;;;;;;6.31;86.14;95397.94;5071672;28;20495;-74
2021/12/24 10:17:15;;;;;;;4.28;1.67;;;;;;;6.27;86.44;95399.69;5071540;28;20041;-74
2021/12/24 10:19:47;;;;;;;3.65;1.63;;;;;;;6.23;86.82;95401.41;5071644;28;20568;-74
2021/12/24 10:22:16;;;;;;;4.90;1.58;;;;;;;6.22;87.81;95402.53;5071130;28;20049;-74
2021/12/24 10:24:43;;;;;;;3.90;1.73;;;;;;;6.18;87.44;95402.34;5071374;28;20041;-73
2021/12/24 10:27:10;;;;;;;2.50;1.40;;;;;;;6.16;88.05;95396.47;5071045;28;20059;-73
2021/12/24 10:29:39;;;;;;;2.78;1.60;;;;;;;6.14;88.42;95389.78;5071700;28;20040;-73
2021/12/24 10:32:12;;;;;;;5.93;1.52;;;;;;;6.16;89.04;95390.25;5070768;28;20419;-73
2021/12/24 10:34:40;;;;;;;2.85;1.63;;;;;;;6.16;89.18;95396.47;5071308;28;20043;-73
2021/12/24 10:37:14;;;;;;;2.90;1.63;;;;;;;6.18;89.56;95396.16;5070907;28;20051;-73
2021/12/24 10:39:46;;;;;;;5.60;1.80;;;;;;;6.20;89.77;95396.63;5070323;28;20047;-73
2021/12/24 10:42:20;;;;;;;4.55;1.80;;;;;;;6.20;90.25;95402.81;5070655;28;20052;-74
2021/12/24 10:44:48;;;;;;;3.10;1.73;;;;;;;6.21;90.41;95403.63;5071380;28;20040;-73
2021/12/24 10:47:17;;;;;;;3.20;1.73;;;;;;;6.20;90.73;95386.59;5070795;28;20051;-73
2021/12/24 10:52:59;;;;;;;4.90;1.80;;;;;;;6.27;91.49;95386.16;5070340;28;20374;-73
2021/12/24 10:55:31;;;;;;;2.92;1.77;;;;;;;6.32;91.49;95382.50;5070770;28;20101;-72
2021/12/24 10:58:00;;;;;;;4.43;1.70;;;;;;;6.30;91.51;95358.50;5071253;28;20048;-73
2021/12/24 11:00:29;;;;;;;3.63;1.85;;;;;;;6.30;91.63;95363.91;5070574;28;20033;-73
2021/12/24 11:02:58;;;;;;;3.50;1.95;;;;;;;6.31;91.79;95354.66;5070490;28;20068;-73
2021/12/24 11:05:30;;;;;;;6.25;1.95;;;;;;;6.34;92.12;95359.47;5070418;28;20048;-72
2021/12/24 11:07:58;;;;;;;3.33;1.70;;;;;;;6.35;92.04;95360.25;5070868;28;20486;-72
2021/12/24 11:10:28;;;;;;;3.65;2.03;;;;;;;6.40;91.49;95365.50;5068115;28;20048;-73
2021/12/24 11:12:57;;;;;;;4.05;1.90;;;;;;;6.41;91.69;95362.47;5070985;28;20044;-73
2021/12/24 11:15:28;;;;;;;6.32;1.88;;;;;;;6.45;91.57;95366.16;5070556;28;20507;-73
2021/12/24 11:17:56;;;;;;;2.92;1.60;;;;;;;6.49;91.42;95361.72;5070940;28;20049;-73
2021/12/24 11:20:24;;;;;;;3.75;2.30;;;;;;;6.53;91.49;95359.97;5070313;28;20041;-73
2021/12/24 11:22:53;;;;;;;6.32;2.03;;;;;;;6.52;91.02;95350.28;5070413;28;20048;-73
2021/12/24 11:25:21;;;;;;;2.80;1.80;;;;;;;6.60;91.16;95350.59;5070169;28;20128;-73
2021/12/24 11:27:49;;;;;;;3.15;1.60;;;;;;;6.71;90.76;95362.69;5070678;28;20047;-73
2021/12/24 11:30:16;;;;;;;3.45;1.80;;;;;;;6.76;90.43;95349.00;5070267;28;20052;-73
2021/12/24 11:32:44;;;;;;;4.07;1.60;;;;;;;6.77;90.15;95351.38;5070759;28;20063;-73
2021/12/24 11:35:13;;;;;;;5.72;1.77;;;;;;;6.80;89.61;95352.69;5070177;28;20063;-73
2021/12/24 11:37:44;;;;;;;4.25;1.77;;;;;;;6.79;89.51;95348.38;5070696;28;20162;-73
2021/12/24 11:40:13;;;;;;;4.60;1.73;;;;;;;6.83;88.84;95346.63;5067654;28;20052;-73
2021/12/24 11:42:40;;;;;;;3.22;1.92;;;;;;;6.85;88.82;95343.59;5070483;28;20546;-73
2021/12/24 11:45:10;;;;;;;6.00;2.20;;;;;;;6.86;88.81;95345.19;5070255;28;20403;-73
2021/12/24 11:47:37;;;;;;;3.33;1.63;;;;;;;6.86;88.91;95348.69;5070725;28;20048;-73
2021/12/24 11:50:04;;;;;;;4.07;1.58;;;;;;;6.87;88.40;95350.28;5070168;28;20479;-73
2021/12/24 11:52:31;;;;;;;2.80;1.65;;;;;;;6.89;88.84;95347.25;5070569;28;20398;-72
2021/12/24 11:54:59;;;;;;;4.80;1.92;;;;;;;6.86;89.08;95343.28;5070537;28;20044;-73
2021/12/24 11:57:26;;;;;;;4.63;1.92;;;;;;;6.84;89.48;95340.13;5070040;28;20315;-73
2021/12/24 11:59:53;;;;;;;2.92;1.50;;;;;;;6.79;89.63;95335.66;5070387;28;20406;-73
2021/12/24 12:02:45;;;;;;;2.40;1.45;;;;;;;6.77;89.88;95334.38;5069489;28;20045;-73
2021/12/24 12:05:17;;;;;;;4.32;1.70;;;;;;;6.75;89.65;95325.78;5069959;28;20048;-73
2021/12/24 12:07:44;;;;;;;4.07;1.40;;;;;;;6.73;89.84;95328.00;5070362;28;20045;-73
2021/12/24 12:10:12;;;;;;;4.65;1.67;;;;;;;6.74;90.62;95335.00;5067766;28;20056;-74
2021/12/24 12:12:41;;;;;;;5.72;1.85;;;;;;;6.73;90.42;95322.56;5070235;28;20495;-73
2021/12/24 12:15:23;;;;;;;3.38;1.63;;;;;;;6.74;90.68;95324.19;5071947;28;20040;-73
2021/12/24 12:17:53;;;;;;;2.83;1.52;;;;;;;6.73;90.72;95325.28;5074338;28;20509;-73
2021/12/24 12:20:45;;;;;;;3.85;1.52;;;;;;;6.73;90.36;95325.28;5073403;28;20399;-73
2021/12/24 12:23:50;;;;;;;2.75;1.65;;;;;;;6.70;90.18;95324.03;5073463;28;20056;-74
2021/12/24 12:26:42;;;;;;;5.68;1.75;;;;;;;6.73;89.93;95317.16;5073393;28;20049;-73
2021/12/24 12:29:25;;;;;;;4.68;1.95;;;;;;;6.69;90.25;95313.53;5073293;28;20075;-73
2021/12/24 12:31:55;;;;;;;3.28;1.63;;;;;;;6.71;90.24;95303.16;5073888;28;20419;-72
2021/12/24 12:34:48;;;;;;;3.00;1.40;;;;;;;6.68;90.17;95303.78;5073032;28;20049;-73
2021/12/24 12:37:16;;;;;;;2.63;1.55;;;;;;;6.69;90.31;95300.00;5073383;28;20044;-73
2021/12/24 12:39:44;;;;;;;6.82;1.95;;;;;;;6.69;90.06;95305.41;5072279;28;20040;-73
2021/12/24 12:42:13;;;;;;;3.47;1.52;;;;;;;6.69;89.93;95297.28;5074012;28;20044;-73
2021/12/24 12:44:45;;;;;;;3.63;1.73;;;;;;;6.70;89.78;95301.59;5093973;28;20044;-73
2021/12/24 12:47:14;;;;;;;3.78;1.70;;;;;;;6.69;90.09;95286.47;5093286;28;20098;-73
2021/12/24 12:49:41;;;;;;;5.90;1.88;;;;;;;6.71;90.03;95293.16;5093718;28;20047;-73
2021/12/24 12:52:20;;;;;;;5.43;1.60;;;;;;;6.70;90.17;95301.59;5093255;28;20044;-72
2021/12/24 12:54:50;;;;;;;6.82;1.73;;;;;;;6.71;89.87;95290.44;5093919;28;20047;-72
2021/12/24 12:57:21;;;;;;;2.97;1.58;;;;;;;6.71;89.55;95295.84;5093225;28;20048;-72
2021/12/24 13:00:24;;;;;;;5.13;1.65;;;;;;;6.68;90.34;95290.28;5093855;28;20119;-73
2021/12/24 13:03:08;;;;;;;5.43;1.67;;;;;;;6.68;89.85;95292.97;5093577;28;20128;-73
2021/12/24 13:05:53;;;;;;;;;;;;;;;6.70;90.44;95296.19;5093683;28;20047;-73
2021/12/24 13:08:22;;;;;;;3.63;1.40;;;;;;;6.67;90.38;95289.47;5092908;28;19927;-73
2021/12/24 13:10:55;;;;;;;4.13;1.60;;;;;;;6.69;90.68;95291.88;5080686;28;20044;-73
2021/12/24 13:13:22;;;;;;;3.72;1.90;;;;;;;6.69;90.47;95292.69;5072636;28;20044;-73